sensor_id;sensor_type;location;lat;lon;timestamp;pressure;altitude;pressure_sealevel;temperature;humidity
55934;BME280;41839;41.386;2.082;2022-07-10T00:01:02;100097.47;;;27.96;44.35
55934;BME280;41839;41.386;2.082;2022-07-10T00:03:28;100059.09;;;27.78;45.03
55934;BME280;41839;41.386;2.082;2022-07-10T00:05:53;100094.72;;;28.01;38.46
55934;BME280;41839;41.386;2.082;2022-07-10T00:08:19;100097.31;;;28.02;39.44
55934;BME280;41839;41.386;2.082;2022-07-10T00:10:44;100089.47;;;27.99;37.43
55934;BME280;41839;41.386;2.082;2022-07-10T00:13:10;100073.78;;;27.90;36.86
55934;BME280;41839;41.386;2.082;2022-07-10T00:15:35;100089.44;;;28.01;40.79
55934;BME280;41839;41.386;2.082;2022-07-10T00:18:30;100088.72;;;27.94;36.28
55934;BME280;41839;41.386;2.082;2022-07-10T00:20:56;100079.91;;;27.94;37.13
55934;BME280;41839;41.386;2.082;2022-07-10T00:23:21;100068.63;;;27.86;36.53
55934;BME280;41839;41.386;2.082;2022-07-10T00:25:47;100061.59;;;27.85;43.15
55934;BME280;41839;41.386;2.082;2022-07-10T00:28:12;100069.41;;;27.89;36.63
55934;BME280;41839;41.386;2.082;2022-07-10T00:30:38;100066.91;;;27.85;36.14
55934;BME280;41839;41.386;2.082;2022-07-10T00:33:04;100068.69;;;27.83;37.42
55934;BME280;41839;41.386;2.082;2022-07-10T00:35:29;100066.16;;;27.76;36.23
55934;BME280;41839;41.386;2.082;2022-07-10T00:37:55;100068.66;;;27.84;36.53
55934;BME280;41839;41.386;2.082;2022-07-10T00:40:20;100068.63;;;27.86;39.47
55934;BME280;41839;41.386;2.082;2022-07-10T00:42:46;100064.19;;;27.88;36.46
55934;BME280;41839;41.386;2.082;2022-07-10T00:45:12;100062.41;;;27.88;39.93
55934;BME280;41839;41.386;2.082;2022-07-10T00:47:38;100049.19;;;27.88;39.22
55934;BME280;41839;41.386;2.082;2022-07-10T00:50:04;100049.19;;;27.87;38.47
55934;BME280;41839;41.386;2.082;2022-07-10T00:52:30;100045.59;;;27.91;37.09
55934;BME280;41839;41.386;2.082;2022-07-10T00:55:24;100046.56;;;27.87;41.78
55934;BME280;41839;41.386;2.082;2022-07-10T00:57:50;100047.44;;;27.87;41.76
55934;BME280;41839;41.386;2.082;2022-07-10T01:00:15;100021.47;;;27.66;38.52
55934;BME280;41839;41.386;2.082;2022-07-10T01:02:42;100046.75;;;27.77;37.74
55934;BME280;41839;41.386;2.082;2022-07-10T01:05:08;100045.94;;;27.74;42.34
55934;BME280;41839;41.386;2.082;2022-07-10T01:07:33;100047.53;;;27.83;42.94
55934;BME280;41839;41.386;2.082;2022-07-10T01:09:59;100029.31;;;27.69;37.79
55934;BME280;41839;41.386;2.082;2022-07-10T01:12:25;100023.94;;;27.73;38.08
55934;BME280;41839;41.386;2.082;2022-07-10T01:14:52;100031.91;;;27.70;36.93
55934;BME280;41839;41.386;2.082;2022-07-10T01:17:18;100028.47;;;27.67;43.18
55934;BME280;41839;41.386;2.082;2022-07-10T01:21:42;100012.97;;;27.50;36.72
55934;BME280;41839;41.386;2.082;2022-07-10T01:24:09;100008.66;;;27.46;37.50
55934;BME280;41839;41.386;2.082;2022-07-10T01:26:35;100017.31;;;27.52;41.30
55934;BME280;41839;41.386;2.082;2022-07-10T01:29:03;100006.97;;;27.43;38.64
55934;BME280;41839;41.386;2.082;2022-07-10T01:31:29;100027.75;;;27.60;36.47
55934;BME280;41839;41.386;2.082;2022-07-10T01:33:55;100023.41;;;27.57;35.96
55934;BME280;41839;41.386;2.082;2022-07-10T01:36:22;100006.69;;;27.55;38.25
55934;BME280;41839;41.386;2.082;2022-07-10T01:38:48;100016.25;;;27.63;36.78
55934;BME280;41839;41.386;2.082;2022-07-10T01:41:15;100017.19;;;27.58;36.15
55934;BME280;41839;41.386;2.082;2022-07-10T01:43:41;99993.69;;;27.46;36.82
55934;BME280;41839;41.386;2.082;2022-07-10T01:46:08;99984.88;;;27.46;38.24
55934;BME280;41839;41.386;2.082;2022-07-10T01:49:08;100017.13;;;27.62;37.62
55934;BME280;41839;41.386;2.082;2022-07-10T01:51:33;100027.69;;;27.62;43.03
55934;BME280;41839;41.386;2.082;2022-07-10T01:53:59;100003.31;;;27.49;38.95
55934;BME280;41839;41.386;2.082;2022-07-10T01:56:24;100013.94;;;27.47;39.79
55934;BME280;41839;41.386;2.082;2022-07-10T02:01:04;100009.16;;;27.23;37.13
55934;BME280;41839;41.386;2.082;2022-07-10T02:03:30;100013.59;;;27.21;38.54
55934;BME280;41839;41.386;2.082;2022-07-10T02:06:14;100005.63;;;27.24;37.89
55934;BME280;41839;41.386;2.082;2022-07-10T02:08:40;100006.53;;;27.23;39.38
55934;BME280;41839;41.386;2.082;2022-07-10T02:11:05;100004.81;;;27.20;39.69
55934;BME280;41839;41.386;2.082;2022-07-10T02:13:31;99996.91;;;27.19;37.27
55934;BME280;41839;41.386;2.082;2022-07-10T02:15:57;99979.59;;;27.02;40.96
55934;BME280;41839;41.386;2.082;2022-07-10T02:18:23;100000.44;;;27.18;42.35
55934;BME280;41839;41.386;2.082;2022-07-10T02:20:48;99998.56;;;27.24;39.36
55934;BME280;41839;41.386;2.082;2022-07-10T02:23:14;99965.44;;;27.06;39.33
55934;BME280;41839;41.386;2.082;2022-07-10T02:25:40;99982.84;;;27.18;38.96
55934;BME280;41839;41.386;2.082;2022-07-10T02:28:07;99996.88;;;27.20;38.62
55934;BME280;41839;41.386;2.082;2022-07-10T02:30:33;99956.88;;;26.94;39.41
55934;BME280;41839;41.386;2.082;2022-07-10T02:34:21;99990.81;;;27.17;40.27
55934;BME280;41839;41.386;2.082;2022-07-10T02:36:46;99992.53;;;27.18;43.38
55934;BME280;41839;41.386;2.082;2022-07-10T02:39:12;99966.56;;;26.95;40.20
55934;BME280;41839;41.386;2.082;2022-07-10T02:41:37;99989.13;;;27.09;40.11
55934;BME280;41839;41.386;2.082;2022-07-10T02:44:03;99996.13;;;27.13;44.40
55934;BME280;41839;41.386;2.082;2022-07-10T02:46:29;99976.09;;;27.02;43.63
55934;BME280;41839;41.386;2.082;2022-07-10T02:50:42;99992.34;;;27.27;41.25
55934;BME280;41839;41.386;2.082;2022-07-10T02:53:08;99995.22;;;27.16;40.74
55934;BME280;41839;41.386;2.082;2022-07-10T02:55:33;99990.75;;;27.20;44.91
55934;BME280;41839;41.386;2.082;2022-07-10T02:59:08;99967.31;;;27.00;41.04
55934;BME280;41839;41.386;2.082;2022-07-10T03:01:34;99982.06;;;27.11;40.93
55934;BME280;41839;41.386;2.082;2022-07-10T03:03:59;99994.34;;;27.12;40.82
55934;BME280;41839;41.386;2.082;2022-07-10T03:06:26;99978.75;;;27.02;40.85
55934;BME280;41839;41.386;2.082;2022-07-10T03:08:52;99973.53;;;26.99;40.97
55934;BME280;41839;41.386;2.082;2022-07-10T03:11:17;99989.97;;;27.13;40.83
55934;BME280;41839;41.386;2.082;2022-07-10T03:13:43;99992.59;;;27.15;40.83
55934;BME280;41839;41.386;2.082;2022-07-10T03:16:08;99988.09;;;27.20;42.32
55934;BME280;41839;41.386;2.082;2022-07-10T03:18:34;99995.16;;;27.18;39.92
55934;BME280;41839;41.386;2.082;2022-07-10T03:20:59;99975.16;;;27.04;40.16
55934;BME280;41839;41.386;2.082;2022-07-10T03:24:42;99968.44;;;26.88;40.97
55934;BME280;41839;41.386;2.082;2022-07-10T03:27:12;99979.00;;;26.88;41.15
55934;BME280;41839;41.386;2.082;2022-07-10T03:29:37;99975.53;;;26.84;41.50
55934;BME280;41839;41.386;2.082;2022-07-10T03:32:03;99979.94;;;26.85;41.67
55934;BME280;41839;41.386;2.082;2022-07-10T03:34:29;99974.81;;;26.78;42.75
55934;BME280;41839;41.386;2.082;2022-07-10T03:36:55;99976.41;;;26.86;42.26
55934;BME280;41839;41.386;2.082;2022-07-10T03:39:20;99975.59;;;26.83;43.75
55934;BME280;41839;41.386;2.082;2022-07-10T03:43:12;99977.31;;;26.84;42.23
55934;BME280;41839;41.386;2.082;2022-07-10T03:45:37;99970.31;;;26.83;41.71
55934;BME280;41839;41.386;2.082;2022-07-10T03:48:03;99977.38;;;26.82;40.83
55934;BME280;41839;41.386;2.082;2022-07-10T03:50:28;99986.41;;;26.69;41.72
55934;BME280;41839;41.386;2.082;2022-07-10T03:53:37;99989.19;;;26.60;45.63
55934;BME280;41839;41.386;2.082;2022-07-10T03:56:03;99987.25;;;26.71;45.39
55934;BME280;41839;41.386;2.082;2022-07-10T03:58:28;99944.41;;;26.57;43.89
55934;BME280;41839;41.386;2.082;2022-07-10T04:00:54;99982.72;;;26.79;43.19
55934;BME280;41839;41.386;2.082;2022-07-10T04:03:19;99980.13;;;26.75;42.27
55934;BME280;41839;41.386;2.082;2022-07-10T04:05:45;99980.66;;;26.44;41.81
55934;BME280;41839;41.386;2.082;2022-07-10T04:08:10;99978.22;;;26.33;42.30
55934;BME280;41839;41.386;2.082;2022-07-10T04:12:33;99962.19;;;26.45;43.54
55934;BME280;41839;41.386;2.082;2022-07-10T04:14:59;99967.31;;;26.55;42.41
55934;BME280;41839;41.386;2.082;2022-07-10T04:17:24;99949.97;;;26.40;42.88
55934;BME280;41839;41.386;2.082;2022-07-10T04:19:50;99961.25;;;26.48;42.48
55934;BME280;41839;41.386;2.082;2022-07-10T04:22:15;99967.31;;;26.55;43.56
55934;BME280;41839;41.386;2.082;2022-07-10T04:24:40;99966.31;;;26.62;42.92
55934;BME280;41839;41.386;2.082;2022-07-10T04:27:16;99952.31;;;26.57;42.67
55934;BME280;41839;41.386;2.082;2022-07-10T04:29:42;99974.16;;;26.65;42.79
55934;BME280;41839;41.386;2.082;2022-07-10T04:32:08;99968.03;;;26.64;42.71
55934;BME280;41839;41.386;2.082;2022-07-10T04:34:34;99963.56;;;26.68;44.53
55934;BME280;41839;41.386;2.082;2022-07-10T04:36:59;99949.69;;;26.57;42.93
55934;BME280;41839;41.386;2.082;2022-07-10T04:39:57;99965.44;;;26.61;42.88
55934;BME280;41839;41.386;2.082;2022-07-10T04:42:22;99968.16;;;26.57;43.31
55934;BME280;41839;41.386;2.082;2022-07-10T04:44:48;99966.53;;;26.51;45.83
55934;BME280;41839;41.386;2.082;2022-07-10T04:47:13;99959.53;;;26.49;43.99
55934;BME280;41839;41.386;2.082;2022-07-10T04:49:39;99964.66;;;26.56;43.67
55934;BME280;41839;41.386;2.082;2022-07-10T04:53:10;99950.53;;;26.60;43.58
55934;BME280;41839;41.386;2.082;2022-07-10T04:55:35;99956.63;;;26.62;43.51
55934;BME280;41839;41.386;2.082;2022-07-10T04:58:01;99955.84;;;26.57;44.54
55934;BME280;41839;41.386;2.082;2022-07-10T05:00:26;99953.22;;;26.57;44.44
55934;BME280;41839;41.386;2.082;2022-07-10T05:02:51;99946.97;;;26.60;44.37
55934;BME280;41839;41.386;2.082;2022-07-10T05:05:17;99933.94;;;26.52;44.63
55934;BME280;41839;41.386;2.082;2022-07-10T05:07:42;99938.41;;;26.47;44.38
55934;BME280;41839;41.386;2.082;2022-07-10T05:10:08;99955.19;;;26.41;44.40
55934;BME280;41839;41.386;2.082;2022-07-10T05:12:34;99951.88;;;26.32;44.53
55934;BME280;41839;41.386;2.082;2022-07-10T05:14:59;99955.38;;;26.32;44.24
55934;BME280;41839;41.386;2.082;2022-07-10T05:17:26;99940.38;;;26.36;45.19
55934;BME280;41839;41.386;2.082;2022-07-10T05:19:54;99948.81;;;26.58;43.30
55934;BME280;41839;41.386;2.082;2022-07-10T05:22:21;99946.19;;;26.56;43.46
55934;BME280;41839;41.386;2.082;2022-07-10T05:25:29;99938.41;;;26.49;43.08
55934;BME280;41839;41.386;2.082;2022-07-10T05:27:56;99961.16;;;26.56;43.39
55934;BME280;41839;41.386;2.082;2022-07-10T05:30:21;99957.66;;;26.54;43.69
55934;BME280;41839;41.386;2.082;2022-07-10T05:32:46;99966.53;;;26.51;44.12
55934;BME280;41839;41.386;2.082;2022-07-10T05:35:14;99954.19;;;26.50;44.99
55934;BME280;41839;41.386;2.082;2022-07-10T05:37:39;99961.16;;;26.56;44.23
55934;BME280;41839;41.386;2.082;2022-07-10T05:40:05;99953.22;;;26.56;44.46
55934;BME280;41839;41.386;2.082;2022-07-10T05:44:42;99965.56;;;26.54;44.19
55934;BME280;41839;41.386;2.082;2022-07-10T05:47:07;99957.63;;;26.55;43.71
55934;BME280;41839;41.386;2.082;2022-07-10T05:49:33;99954.03;;;26.59;44.34
55934;BME280;41839;41.386;2.082;2022-07-10T05:51:58;99951.38;;;26.61;44.34
55934;BME280;41839;41.386;2.082;2022-07-10T05:54:24;99962.63;;;26.71;44.03
55934;BME280;41839;41.386;2.082;2022-07-10T05:56:49;99967.75;;;26.78;43.55
55934;BME280;41839;41.386;2.082;2022-07-10T05:59:16;99965.91;;;26.83;43.49
55934;BME280;41839;41.386;2.082;2022-07-10T06:01:41;99974.56;;;26.90;46.21
55934;BME280;41839;41.386;2.082;2022-07-10T06:04:07;99973.69;;;26.89;44.24
55934;BME280;41839;41.386;2.082;2022-07-10T06:06:32;99972.84;;;26.89;43.91
55934;BME280;41839;41.386;2.082;2022-07-10T06:08:58;99953.63;;;26.82;44.12
55934;BME280;41839;41.386;2.082;2022-07-10T06:11:24;99969.22;;;26.95;44.07
55934;BME280;41839;41.386;2.082;2022-07-10T06:13:49;99976.78;;;27.11;44.79
55934;BME280;41839;41.386;2.082;2022-07-10T06:16:25;99977.63;;;27.15;44.18
55934;BME280;41839;41.386;2.082;2022-07-10T06:19:03;99982.75;;;27.23;46.08
55934;BME280;41839;41.386;2.082;2022-07-10T06:21:28;99989.56;;;27.33;46.46
55934;BME280;41839;41.386;2.082;2022-07-10T06:23:54;99988.53;;;27.40;46.56
55934;BME280;41839;41.386;2.082;2022-07-10T06:26:19;99978.94;;;27.36;44.88
55934;BME280;41839;41.386;2.082;2022-07-10T06:28:45;99983.91;;;27.50;47.45
55934;BME280;41839;41.386;2.082;2022-07-10T06:31:10;99983.09;;;27.48;47.02
55934;BME280;41839;41.386;2.082;2022-07-10T06:33:37;99976.88;;;27.50;46.72
55934;BME280;41839;41.386;2.082;2022-07-10T06:36:03;100000.34;;;27.64;44.27
55934;BME280;41839;41.386;2.082;2022-07-10T06:38:28;99992.41;;;27.66;46.58
55934;BME280;41839;41.386;2.082;2022-07-10T06:40:54;100000.13;;;27.73;46.64
55934;BME280;41839;41.386;2.082;2022-07-10T06:43:19;99995.66;;;27.78;46.20
55934;BME280;41839;41.386;2.082;2022-07-10T06:45:45;99983.31;;;27.77;46.77
55934;BME280;41839;41.386;2.082;2022-07-10T06:48:10;100000.59;;;27.92;45.21
55934;BME280;41839;41.386;2.082;2022-07-10T06:50:36;100000.50;;;27.97;44.58
55934;BME280;41839;41.386;2.082;2022-07-10T06:53:03;100004.81;;;28.01;46.08
55934;BME280;41839;41.386;2.082;2022-07-10T06:55:29;100009.03;;;28.08;46.29
55934;BME280;41839;41.386;2.082;2022-07-10T06:57:55;100000.22;;;28.09;46.22
55934;BME280;41839;41.386;2.082;2022-07-10T07:00:21;99989.88;;;28.00;46.68
55934;BME280;41839;41.386;2.082;2022-07-10T07:02:57;99892.56;;;27.40;46.47
55934;BME280;41839;41.386;2.082;2022-07-10T07:05:22;100020.34;;;28.15;46.53
55934;BME280;41839;41.386;2.082;2022-07-10T07:07:48;99991.44;;;28.07;46.20
55934;BME280;41839;41.386;2.082;2022-07-10T07:10:13;100011.25;;;28.26;45.54
55934;BME280;41839;41.386;2.082;2022-07-10T07:12:39;99998.00;;;28.26;45.38
55934;BME280;41839;41.386;2.082;2022-07-10T07:15:05;100009.03;;;28.45;45.15
55934;BME280;41839;41.386;2.082;2022-07-10T07:17:31;100001.78;;;28.52;44.99
55934;BME280;41839;41.386;2.082;2022-07-10T07:20:01;99991.94;;;28.59;44.35
55934;BME280;41839;41.386;2.082;2022-07-10T07:23:02;100008.72;;;28.90;44.10
55934;BME280;41839;41.386;2.082;2022-07-10T07:25:40;100009.22;;;29.06;43.94
55934;BME280;41839;41.386;2.082;2022-07-10T07:28:08;99995.69;;;29.15;43.29
55934;BME280;41839;41.386;2.082;2022-07-10T07:30:34;99988.69;;;29.14;43.34
55934;BME280;41839;41.386;2.082;2022-07-10T07:32:59;100007.56;;;29.32;42.82
55934;BME280;41839;41.386;2.082;2022-07-10T07:35:25;100007.09;;;29.49;42.68
55934;BME280;41839;41.386;2.082;2022-07-10T07:39:45;100007.56;;;29.63;42.37
55934;BME280;41839;41.386;2.082;2022-07-10T07:42:10;99994.28;;;29.64;41.73
55934;BME280;41839;41.386;2.082;2022-07-10T07:44:36;100005.00;;;29.88;41.55
55934;BME280;41839;41.386;2.082;2022-07-10T07:47:01;100003.56;;;30.06;39.40
55934;BME280;41839;41.386;2.082;2022-07-10T07:49:27;100004.03;;;30.20;40.85
55934;BME280;41839;41.386;2.082;2022-07-10T07:51:52;100004.81;;;30.22;41.02
55934;BME280;41839;41.386;2.082;2022-07-10T07:54:17;100006.50;;;30.25;40.26
55934;BME280;41839;41.386;2.082;2022-07-10T07:56:43;100004.41;;;30.35;39.62
55934;BME280;41839;41.386;2.082;2022-07-10T07:59:08;100007.38;;;30.52;40.10
55934;BME280;41839;41.386;2.082;2022-07-10T08:01:34;100000.22;;;30.54;39.90
55934;BME280;41839;41.386;2.082;2022-07-10T08:03:59;100007.78;;;30.66;38.43
55934;BME280;41839;41.386;2.082;2022-07-10T08:06:25;99996.28;;;30.91;39.01
55934;BME280;41839;41.386;2.082;2022-07-10T08:08:50;99992.00;;;30.87;39.54
55934;BME280;41839;41.386;2.082;2022-07-10T08:11:16;99989.00;;;30.71;39.04
55934;BME280;41839;41.386;2.082;2022-07-10T08:13:42;99985.53;;;30.69;36.96
55934;BME280;41839;41.386;2.082;2022-07-10T08:16:08;99986.19;;;30.75;38.86
55934;BME280;41839;41.386;2.082;2022-07-10T08:18:34;99986.47;;;30.93;38.37
55934;BME280;41839;41.386;2.082;2022-07-10T08:20:59;99991.53;;;31.00;38.54
55934;BME280;41839;41.386;2.082;2022-07-10T08:23:25;99979.59;;;30.87;35.35
55934;BME280;41839;41.386;2.082;2022-07-10T08:25:50;99980.59;;;30.85;38.56
55934;BME280;41839;41.386;2.082;2022-07-10T08:28:16;99988.19;;;30.69;37.55
55934;BME280;41839;41.386;2.082;2022-07-10T08:30:41;99976.13;;;30.85;37.23
55934;BME280;41839;41.386;2.082;2022-07-10T08:33:08;99984.00;;;30.88;37.43
55934;BME280;41839;41.386;2.082;2022-07-10T08:35:33;99977.13;;;31.06;33.75
55934;BME280;41839;41.386;2.082;2022-07-10T08:37:59;99980.22;;;31.19;32.38
55934;BME280;41839;41.386;2.082;2022-07-10T08:40:25;99982.88;;;31.19;34.24
55934;BME280;41839;41.386;2.082;2022-07-10T08:42:51;99986.63;;;31.37;35.70
55934;BME280;41839;41.386;2.082;2022-07-10T08:45:16;99981.31;;;31.37;37.12
55934;BME280;41839;41.386;2.082;2022-07-10T08:47:42;99980.53;;;31.35;36.00
55934;BME280;41839;41.386;2.082;2022-07-10T08:50:37;99982.13;;;31.39;34.90
55934;BME280;41839;41.386;2.082;2022-07-10T08:55:31;99976.06;;;31.35;36.75
55934;BME280;41839;41.386;2.082;2022-07-10T08:57:58;99970.03;;;31.07;36.45
55934;BME280;41839;41.386;2.082;2022-07-10T09:00:24;99962.84;;;31.09;36.19
55934;BME280;41839;41.386;2.082;2022-07-10T09:02:49;99968.09;;;30.87;35.12
55934;BME280;41839;41.386;2.082;2022-07-10T09:05:15;99975.75;;;31.19;33.13
55934;BME280;41839;41.386;2.082;2022-07-10T09:07:40;99952.69;;;31.20;34.47
55934;BME280;41839;41.386;2.082;2022-07-10T09:10:10;99967.78;;;31.43;35.38
55934;BME280;41839;41.386;2.082;2022-07-10T09:13:04;99974.91;;;31.42;33.87
55934;BME280;41839;41.386;2.082;2022-07-10T09:16:04;99971.75;;;31.55;31.81
55934;BME280;41839;41.386;2.082;2022-07-10T09:18:29;99975.66;;;31.68;33.57
55934;BME280;41839;41.386;2.082;2022-07-10T09:20:55;99948.13;;;31.23;33.11
55934;BME280;41839;41.386;2.082;2022-07-10T09:23:22;99968.66;;;31.43;34.67
55934;BME280;41839;41.386;2.082;2022-07-10T09:25:50;99974.91;;;31.19;35.20
55934;BME280;41839;41.386;2.082;2022-07-10T09:28:20;99976.06;;;30.87;36.07
55934;BME280;41839;41.386;2.082;2022-07-10T09:30:47;99975.38;;;30.82;35.05
55934;BME280;41839;41.386;2.082;2022-07-10T09:36:07;99973.53;;;30.84;31.85
55934;BME280;41839;41.386;2.082;2022-07-10T09:41:27;99940.38;;;30.69;33.56
55934;BME280;41839;41.386;2.082;2022-07-10T09:46:37;99970.53;;;30.93;33.93
55934;BME280;41839;41.386;2.082;2022-07-10T09:50:34;99955.97;;;30.80;35.31
55934;BME280;41839;41.386;2.082;2022-07-10T09:53:03;99961.84;;;31.13;33.40
55934;BME280;41839;41.386;2.082;2022-07-10T09:55:30;99964.78;;;31.29;33.38
55934;BME280;41839;41.386;2.082;2022-07-10T09:57:58;99970.88;;;31.31;32.42
55934;BME280;41839;41.386;2.082;2022-07-10T10:02:00;99963.72;;;31.33;27.92
55934;BME280;41839;41.386;2.082;2022-07-10T10:04:28;99939.66;;;31.37;29.29
55934;BME280;41839;41.386;2.082;2022-07-10T10:06:58;99968.38;;;31.51;30.89
55934;BME280;41839;41.386;2.082;2022-07-10T10:09:46;99964.88;;;31.49;32.35
55934;BME280;41839;41.386;2.082;2022-07-10T10:12:21;99965.88;;;31.46;31.41
55934;BME280;41839;41.386;2.082;2022-07-10T10:14:49;99967.56;;;31.26;35.37
55934;BME280;41839;41.386;2.082;2022-07-10T10:17:15;99960.50;;;31.01;35.59
55934;BME280;41839;41.386;2.082;2022-07-10T10:21:53;99939.81;;;30.86;34.61
55934;BME280;41839;41.386;2.082;2022-07-10T10:24:20;99920.34;;;30.85;35.49
55934;BME280;41839;41.386;2.082;2022-07-10T10:26:46;99946.00;;;31.10;32.85
55934;BME280;41839;41.386;2.082;2022-07-10T10:29:12;99955.00;;;31.06;35.57
55934;BME280;41839;41.386;2.082;2022-07-10T10:31:38;99936.97;;;30.90;35.28
55934;BME280;41839;41.386;2.082;2022-07-10T10:34:05;99939.84;;;30.84;35.41
55934;BME280;41839;41.386;2.082;2022-07-10T10:39:12;99935.59;;;30.80;36.04
55934;BME280;41839;41.386;2.082;2022-07-10T10:41:44;99947.13;;;31.02;35.89
55934;BME280;41839;41.386;2.082;2022-07-10T10:48:10;99947.38;;;30.96;35.96
55934;BME280;41839;41.386;2.082;2022-07-10T10:53:23;99938.53;;;30.96;36.19
55934;BME280;41839;41.386;2.082;2022-07-10T10:58:43;99929.16;;;31.09;35.38
55934;BME280;41839;41.386;2.082;2022-07-10T11:04:18;99924.63;;;31.36;35.95
55934;BME280;41839;41.386;2.082;2022-07-10T11:06:51;99928.31;;;31.32;34.49
55934;BME280;41839;41.386;2.082;2022-07-10T11:10:56;99928.97;;;31.61;34.30
55934;BME280;41839;41.386;2.082;2022-07-10T11:13:27;99921.59;;;31.45;35.22
55934;BME280;41839;41.386;2.082;2022-07-10T11:17:06;99904.38;;;31.32;35.75
55934;BME280;41839;41.386;2.082;2022-07-10T11:19:32;99920.81;;;31.20;35.91
55934;BME280;41839;41.386;2.082;2022-07-10T11:22:13;99919.75;;;31.24;35.81
55934;BME280;41839;41.386;2.082;2022-07-10T11:24:55;99921.28;;;31.31;35.61
55934;BME280;41839;41.386;2.082;2022-07-10T11:27:55;99914.28;;;31.29;35.48
55934;BME280;41839;41.386;2.082;2022-07-10T11:30:23;99919.41;;;31.33;35.91
55934;BME280;41839;41.386;2.082;2022-07-10T11:32:48;99918.53;;;31.34;35.58
55934;BME280;41839;41.386;2.082;2022-07-10T11:35:16;99914.31;;;31.27;36.18
55934;BME280;41839;41.386;2.082;2022-07-10T11:37:53;99904.84;;;31.43;38.34
55934;BME280;41839;41.386;2.082;2022-07-10T11:40:20;99910.06;;;31.68;37.34
55934;BME280;41839;41.386;2.082;2022-07-10T11:42:54;99912.94;;;31.84;36.43
55934;BME280;41839;41.386;2.082;2022-07-10T11:45:30;99910.47;;;31.80;36.74
55934;BME280;41839;41.386;2.082;2022-07-10T11:47:58;99910.84;;;31.70;37.31
55934;BME280;41839;41.386;2.082;2022-07-10T11:50:25;99906.34;;;31.51;37.75
55934;BME280;41839;41.386;2.082;2022-07-10T11:52:51;99904.22;;;31.59;38.76
55934;BME280;41839;41.386;2.082;2022-07-10T11:55:22;99906.88;;;31.59;38.28
55934;BME280;41839;41.386;2.082;2022-07-10T11:57:47;99908.31;;;31.67;38.48
55934;BME280;41839;41.386;2.082;2022-07-10T12:01:02;99908.78;;;31.99;38.68
55934;BME280;41839;41.386;2.082;2022-07-10T12:03:31;99905.16;;;31.80;38.23
55934;BME280;41839;41.386;2.082;2022-07-10T12:06:05;99899.53;;;31.65;38.18
55934;BME280;41839;41.386;2.082;2022-07-10T12:10:20;99896.25;;;31.59;38.89
55934;BME280;41839;41.386;2.082;2022-07-10T12:12:46;99896.44;;;31.54;38.98
55934;BME280;41839;41.386;2.082;2022-07-10T12:15:30;99903.00;;;31.45;38.68
55934;BME280;41839;41.386;2.082;2022-07-10T12:17:56;99897.00;;;31.40;38.79
55934;BME280;41839;41.386;2.082;2022-07-10T12:20:21;99882.53;;;31.48;38.59
55934;BME280;41839;41.386;2.082;2022-07-10T12:22:47;99857.97;;;31.19;36.61
55934;BME280;41839;41.386;2.082;2022-07-10T12:25:13;99889.44;;;31.52;38.04
55934;BME280;41839;41.386;2.082;2022-07-10T12:27:39;99888.88;;;31.43;38.02
55934;BME280;41839;41.386;2.082;2022-07-10T12:30:05;99887.72;;;31.51;37.90
55934;BME280;41839;41.386;2.082;2022-07-10T12:32:30;99880.53;;;31.75;37.32
55934;BME280;41839;41.386;2.082;2022-07-10T12:34:58;99878.06;;;31.92;36.97
55934;BME280;41839;41.386;2.082;2022-07-10T12:37:24;99881.41;;;31.75;37.36
55934;BME280;41839;41.386;2.082;2022-07-10T12:39:51;99878.88;;;31.72;37.02
55934;BME280;41839;41.386;2.082;2022-07-10T12:42:26;99877.28;;;31.88;37.04
55934;BME280;41839;41.386;2.082;2022-07-10T12:44:52;99884.41;;;31.88;37.05
55934;BME280;41839;41.386;2.082;2022-07-10T12:47:19;99875.34;;;31.94;36.88
55934;BME280;41839;41.386;2.082;2022-07-10T12:50:17;99869.53;;;31.84;37.26
55934;BME280;41839;41.386;2.082;2022-07-10T12:52:43;99873.19;;;31.81;37.00
55934;BME280;41839;41.386;2.082;2022-07-10T12:55:34;99864.88;;;31.89;37.41
55934;BME280;41839;41.386;2.082;2022-07-10T12:58:09;99870.94;;;31.70;38.02
55934;BME280;41839;41.386;2.082;2022-07-10T13:00:43;99871.44;;;31.58;38.64
55934;BME280;41839;41.386;2.082;2022-07-10T13:03:11;99879.19;;;31.64;38.62
55934;BME280;41839;41.386;2.082;2022-07-10T13:05:38;99869.41;;;31.65;39.22
55934;BME280;41839;41.386;2.082;2022-07-10T13:08:11;99881.19;;;31.80;39.14
55934;BME280;41839;41.386;2.082;2022-07-10T13:12:47;99872.88;;;31.89;39.03
55934;BME280;41839;41.386;2.082;2022-07-10T13:15:13;99871.97;;;31.88;39.07
55934;BME280;41839;41.386;2.082;2022-07-10T13:17:45;99868.47;;;32.08;38.66
55934;BME280;41839;41.386;2.082;2022-07-10T13:20:10;99870.56;;;31.80;39.87
55934;BME280;41839;41.386;2.082;2022-07-10T13:22:36;99873.03;;;31.84;39.50
55934;BME280;41839;41.386;2.082;2022-07-10T13:25:01;99865.97;;;31.83;39.47
55934;BME280;41839;41.386;2.082;2022-07-10T13:27:28;99870.47;;;31.61;39.99
55934;BME280;41839;41.386;2.082;2022-07-10T13:29:53;99843.50;;;31.48;39.79
55934;BME280;41839;41.386;2.082;2022-07-10T13:32:18;99863.28;;;31.63;40.27
55934;BME280;41839;41.386;2.082;2022-07-10T13:34:44;99869.53;;;31.62;40.26
55934;BME280;41839;41.386;2.082;2022-07-10T13:37:32;99858.16;;;31.58;40.05
55934;BME280;41839;41.386;2.082;2022-07-10T13:39:57;99864.06;;;31.44;40.25
55934;BME280;41839;41.386;2.082;2022-07-10T13:42:23;99861.81;;;31.78;39.58
55934;BME280;41839;41.386;2.082;2022-07-10T13:45:38;99846.66;;;31.58;39.68
55934;BME280;41839;41.386;2.082;2022-07-10T13:48:09;99859.34;;;31.51;39.57
55934;BME280;41839;41.386;2.082;2022-07-10T13:50:37;99849.66;;;31.50;39.45
55934;BME280;41839;41.386;2.082;2022-07-10T13:53:03;99847.03;;;31.49;39.40
55934;BME280;41839;41.386;2.082;2022-07-10T13:55:29;99848.84;;;31.48;39.08
55934;BME280;41839;41.386;2.082;2022-07-10T13:57:54;99836.69;;;31.19;39.36
55934;BME280;41839;41.386;2.082;2022-07-10T14:01:29;99852.06;;;31.11;39.31